SBAT

Alta Floresta Airport

Alta Floresta, Brazil
TAF SBAT 210400Z 2106/2118 00000KT 9999 FEW010 TN24/2111Z TX32/2117Z BECMG 2111/2113 36005KT BECMG 2115/2117 33005KT SCT025 FEW030TCU RMK PEH
Issued Valid From Valid To
Apr-21 @ 04:00 UTC
(5 hours ago)
Apr-21 @ 06:00 UTC
(3 hours ago)
Apr-21 @ 18:00 UTC
(in 9 hours)
Apr-21 @ 06:00 to Apr-21 @ 11:00
TAF SBAT 210400Z 2106/2118 00000KT 9999 FEW010 TN24/2111Z TX32/2117Z
Visibility Clouds
10,000+ meters
  • Few at 1,000' AGL
Becoming Apr-21 @ 11:00 to Apr-21 @ 15:00
BECMG 2111/2113 36005KT
Wind Visibility Clouds
360° at 5 knots 10,000+ meters
  • Few at 1,000' AGL
Becoming Apr-21 @ 15:00 to Apr-21 @ 18:00
BECMG 2115/2117 33005KT SCT025 FEW030TCU RMK PEH
Wind Visibility Clouds
330° at 5 knots 10,000+ meters
  • Scattered at 2,500' AGL
  • Few at 3,000' AGL
TAF SBAT 210400Z 2106/2118 00000KT 9999 FEW010 TN24/2111Z TX32/2117Z BECMG 2111/2113 36005KT BECMG 2115/2117 33005KT SCT025 FEW030TCU RMK PEH
Issued Apr-21 @ 04:00 UTC
(5 hours ago)
Valid From Apr-21 @ 06:00 UTC
(3 hours ago)
Valid To Apr-21 @ 18:00 UTC
(in 9 hours)
Apr-21 @ 06:00 - Apr-21 @ 11:00
Clouds
  • Few at 1,000' AGL
Becoming Apr-21 @ 11:00 - Apr-21 @ 15:00
Wind Visibility
360° at 5 knots 10,000+ meters
Clouds
  • Few at 1,000' AGL
Becoming Apr-21 @ 15:00 - Apr-21 @ 18:00
Wind Visibility
330° at 5 knots 10,000+ meters
Clouds
  • Scattered at 2,500' AGL
  • Few at 3,000' AGL